createdAt,value
2023-03-12T00:08:36.742Z,24.1943359375
2023-03-12T00:18:36.714Z,24.1943359375
2023-03-12T00:28:36.606Z,24.40185546875
2023-03-12T00:38:36.521Z,24.40185546875
2023-03-12T00:48:36.452Z,25.09765625
2023-03-12T00:58:36.374Z,24.49951171875
2023-03-12T01:08:36.241Z,24.69482421875
2023-03-12T01:18:36.261Z,24.69482421875
2023-03-12T01:28:36.151Z,25
2023-03-12T01:38:36.058Z,25
2023-03-12T01:48:35.952Z,24.40185546875
2023-03-12T01:58:35.939Z,24.8046875
2023-03-12T02:08:35.904Z,25.1953125
2023-03-12T02:18:35.732Z,25.9033203125
2023-03-12T02:28:35.758Z,24.1943359375
2023-03-12T02:38:35.595Z,24.30419921875
2023-03-12T02:48:36.587Z,23.9013671875
2023-03-12T02:58:35.559Z,24.30419921875
2023-03-12T03:08:35.447Z,23.59619140625
2023-03-12T03:18:36.378Z,23.49853515625
2023-03-12T03:28:35.287Z,22.705078125
2023-03-12T03:38:35.552Z,22.20458984375
2023-03-12T03:48:35.145Z,22.0947265625
2023-03-12T03:58:35.027Z,21.7041015625
2023-03-12T04:08:35.043Z,20.703125
2023-03-12T04:18:34.959Z,20.703125
2023-03-12T04:28:34.866Z,20.30029296875
2023-03-12T04:38:35.001Z,20.703125
2023-03-12T04:48:34.704Z,20.60546875
2023-03-12T04:58:34.742Z,20.10498046875
2023-03-12T05:08:34.569Z,20.20263671875
2023-03-12T05:18:34.532Z,19.7998046875
2023-03-12T05:28:34.401Z,19.6044921875
2023-03-12T05:38:34.344Z,19.39697265625
2023-03-12T05:48:34.285Z,19.29931640625
2023-03-12T05:58:34.182Z,19.10400390625
2023-03-12T06:08:34.194Z,18.896484375
2023-03-12T06:18:34.095Z,18.896484375
2023-03-12T06:28:34.023Z,18.798828125
2023-03-12T06:38:34.024Z,18.701171875
2023-03-12T06:48:33.926Z,18.701171875
2023-03-12T06:58:33.747Z,18.603515625
2023-03-12T07:08:33.756Z,18.505859375
2023-03-12T07:18:33.606Z,18.39599609375
2023-03-12T07:28:33.596Z,18.505859375
2023-03-12T07:38:33.545Z,18.39599609375
2023-03-12T07:48:33.516Z,18.505859375
2023-03-12T07:58:33.542Z,18.505859375
2023-03-12T08:08:33.376Z,18.505859375
2023-03-12T08:18:33.351Z,18.39599609375
2023-03-12T08:28:33.282Z,18.29833984375
2023-03-12T08:38:33.140Z,18.29833984375
2023-03-12T08:48:33.057Z,18.20068359375
2023-03-12T08:58:32.980Z,18.20068359375
2023-03-12T09:08:32.815Z,18.20068359375
2023-03-12T09:18:32.883Z,18.20068359375
2023-03-12T09:28:32.746Z,18.20068359375
2023-03-12T09:38:32.635Z,18.20068359375
2023-03-12T09:48:32.610Z,18.29833984375
2023-03-12T09:58:32.557Z,18.29833984375
2023-03-12T10:08:32.423Z,18.29833984375
2023-03-12T10:18:32.459Z,18.29833984375
2023-03-12T10:28:32.316Z,18.29833984375
2023-03-12T10:38:32.578Z,18.20068359375
2023-03-12T10:48:32.095Z,18.29833984375
2023-03-12T10:58:32.331Z,18.29833984375
2023-03-12T11:08:32.088Z,18.29833984375
2023-03-12T11:18:31.972Z,18.39599609375
2023-03-12T11:28:32.227Z,18.39599609375
2023-03-12T11:38:31.780Z,18.39599609375
2023-03-12T11:48:31.882Z,18.39599609375
2023-03-12T11:58:31.778Z,18.39599609375
2023-03-12T12:08:31.525Z,18.39599609375
2023-03-12T12:18:31.452Z,18.29833984375
2023-03-12T12:28:31.655Z,18.39599609375
2023-03-12T12:38:31.399Z,18.29833984375
2023-03-12T12:48:31.307Z,18.39599609375
2023-03-12T12:58:31.273Z,18.29833984375
2023-03-12T13:08:31.139Z,18.39599609375
2023-03-12T13:18:31.256Z,18.29833984375
2023-03-12T13:28:31.096Z,18.20068359375
2023-03-12T13:38:31.647Z,18.20068359375
2023-03-12T13:48:30.870Z,18.20068359375
2023-03-12T13:58:30.787Z,18.29833984375
2023-03-12T14:08:30.737Z,18.29833984375
2023-03-12T14:18:30.615Z,18.29833984375
2023-03-12T14:28:31.007Z,18.20068359375
2023-03-12T14:38:30.456Z,18.20068359375
2023-03-12T14:48:30.475Z,18.20068359375
2023-03-12T14:58:30.349Z,18.20068359375
2023-03-12T15:08:30.253Z,18.20068359375
2023-03-12T15:18:30.258Z,18.20068359375
2023-03-12T15:28:31.191Z,18.29833984375
2023-03-12T15:38:30.129Z,18.39599609375
2023-03-12T15:48:30.014Z,18.39599609375
2023-03-12T15:58:29.967Z,18.505859375
2023-03-12T16:08:30.336Z,18.29833984375
2023-03-12T16:18:29.801Z,18.39599609375
2023-03-12T16:28:29.820Z,18.29833984375
2023-03-12T16:38:29.735Z,18.29833984375
2023-03-12T16:48:30.080Z,18.39599609375
2023-03-12T16:58:29.516Z,18.39599609375
2023-03-12T17:08:29.820Z,18.39599609375
2023-03-12T17:18:29.502Z,18.39599609375
2023-03-12T17:28:29.270Z,18.39599609375
2023-03-12T17:38:29.293Z,18.39599609375
2023-03-12T17:48:29.165Z,18.39599609375
2023-03-12T17:58:29.044Z,18.39599609375
2023-03-12T18:08:29.071Z,18.39599609375
2023-03-12T18:18:28.904Z,18.39599609375
2023-03-12T18:28:28.990Z,18.505859375
2023-03-12T18:38:28.786Z,18.39599609375
2023-03-12T18:48:30.984Z,18.39599609375
2023-03-12T18:58:28.694Z,18.39599609375
2023-03-12T19:08:28.606Z,18.505859375
2023-03-12T19:18:28.537Z,18.505859375
2023-03-12T19:28:31.196Z,18.505859375
2023-03-12T19:38:28.355Z,18.505859375
2023-03-12T19:48:28.307Z,18.603515625
2023-03-12T19:58:28.283Z,18.798828125
2023-03-12T20:08:28.180Z,18.798828125
2023-03-12T20:18:28.098Z,18.896484375
2023-03-12T20:28:28.047Z,19.10400390625
2023-03-12T20:38:28.096Z,18.896484375
2023-03-12T20:48:27.911Z,18.896484375
2023-03-12T20:58:27.788Z,18.798828125
2023-03-12T21:08:27.707Z,18.701171875
2023-03-12T21:18:27.674Z,18.10302734375
2023-03-12T21:28:27.571Z,17.7978515625
2023-03-12T21:38:27.484Z,17.7978515625
2023-03-12T21:48:27.391Z,17.7978515625
2023-03-12T21:58:27.367Z,17.7978515625
2023-03-12T22:08:27.260Z,17.7001953125
2023-03-12T22:18:27.275Z,17.6025390625
2023-03-12T22:28:27.171Z,17.6025390625
2023-03-12T22:38:27.074Z,17.6025390625
2023-03-12T22:48:27.063Z,17.6025390625
2023-03-12T22:58:26.925Z,17.7001953125
2023-03-12T23:08:26.925Z,17.7001953125
2023-03-12T23:18:26.789Z,17.7001953125
2023-03-12T23:28:26.778Z,17.7978515625
2023-03-12T23:38:26.708Z,18.10302734375
2023-03-12T23:48:26.586Z,18.10302734375
2023-03-12T23:58:26.513Z,18.603515625
